Time;durP1;ratioP1;P1;durP2;ratioP2;P2;SDS_P1;SDS_P2;PMS_P1;PMS_P2;Temp;Humidity;BMP_temperature;BMP_pressure;BME280_temperature;BME280_humidity;BME280_pressure;Samples;Min_cycle;Max_cycle;Signal;HPM_P1;HPM_P2
2021/09/21 00:01:13;;;;;;;8.55;6.15;;;11.50;99.90;;;;;;5070059;28;20031;-50
2021/09/21 00:03:40;;;;;;;8.48;6.07;;;11.50;99.90;;;;;;5070909;28;20058;-49
2021/09/21 00:06:06;;;;;;;7.72;5.65;;;11.50;99.90;;;;;;5070710;28;20437;-48
2021/09/21 00:08:34;;;;;;;6.80;5.57;;;11.40;99.90;;;;;;5064028;28;20028;-48
2021/09/21 00:11:00;;;;;;;8.63;5.90;;;11.40;99.90;;;;;;5059811;28;20024;-49
2021/09/21 00:13:27;;;;;;;10.35;6.18;;;11.40;99.90;;;;;;5069442;28;20074;-50
2021/09/21 00:15:52;;;;;;;8.07;5.75;;;11.40;99.90;;;;;;5070382;28;20033;-50
2021/09/21 00:18:18;;;;;;;9.82;6.03;;;11.40;99.90;;;;;;5069865;28;20533;-50
2021/09/21 00:20:44;;;;;;;10.48;5.72;;;11.30;99.90;;;;;;5070477;28;20521;-48
2021/09/21 00:23:09;;;;;;;7.90;6.03;;;11.40;99.90;;;;;;5070702;28;20024;-50
2021/09/21 00:25:35;;;;;;;8.40;6.15;;;11.30;99.90;;;;;;5070516;28;20032;-51
2021/09/21 00:28:01;;;;;;;10.52;6.32;;;11.30;99.90;;;;;;5070053;28;20029;-48
2021/09/21 00:30:27;;;;;;;9.77;7.07;;;11.30;99.90;;;;;;5070319;28;20033;-50
2021/09/21 00:33:03;;;;;;;10.60;7.63;;;11.30;99.90;;;;;;5070921;28;20032;-50
2021/09/21 00:35:30;;;;;;;10.93;7.55;;;11.30;99.90;;;;;;5070942;28;20032;-48
2021/09/21 00:37:55;;;;;;;11.10;7.57;;;11.20;99.90;;;;;;5069848;28;20017;-48
2021/09/21 00:40:21;;;;;;;9.35;6.55;;;11.30;99.90;;;;;;5057517;28;20024;-50
2021/09/21 00:42:46;;;;;;;10.50;6.55;;;11.20;99.90;;;;;;5067136;28;20200;-50
2021/09/21 00:45:24;;;;;;;9.57;6.65;;;11.20;99.90;;;;;;5070180;28;20021;-49
2021/09/21 00:47:51;;;;;;;10.20;6.80;;;11.10;99.90;;;;;;5069405;28;20032;-50
2021/09/21 00:50:17;;;;;;;9.05;6.53;;;11.10;99.90;;;;;;5069985;28;20125;-48
2021/09/21 00:52:43;;;;;;;10.38;6.55;;;11.20;99.90;;;;;;5070017;28;20024;-49
2021/09/21 00:55:09;;;;;;;11.95;7.65;;;11.20;99.90;;;;;;5069589;28;20387;-48
2021/09/21 00:57:36;;;;;;;10.55;6.53;;;11.10;99.90;;;;;;5067802;28;20029;-47
2021/09/21 01:00:07;;;;;;;12.43;7.82;;;11.10;99.90;;;;;;5069842;28;20016;-47
2021/09/21 01:02:33;;;;;;;11.27;7.20;;;11.10;99.90;;;;;;5069436;28;20031;-49
2021/09/21 01:04:59;;;;;;;9.43;7.57;;;11.10;99.90;;;;;;5068418;28;20020;-49
2021/09/21 01:07:24;;;;;;;11.43;7.38;;;11.10;99.90;;;;;;5069029;28;20032;-48
2021/09/21 01:10:03;;;;;;;12.32;7.82;;;11.10;99.90;;;;;;5060524;28;20060;-49
2021/09/21 01:12:28;;;;;;;11.13;7.40;;;11.10;99.90;;;;;;5062456;28;20029;-48
2021/09/21 01:14:54;;;;;;;9.98;7.15;;;11.10;99.90;;;;;;5069382;28;20111;-50
2021/09/21 01:17:20;;;;;;;10.50;7.07;;;11.10;99.90;;;;;;5068667;28;20036;-48
2021/09/21 01:19:45;;;;;;;10.30;7.22;;;11.10;99.90;;;;;;5069325;28;20516;-53
2021/09/21 01:22:10;;;;;;;9.15;6.45;;;11.10;99.90;;;;;;5069266;28;20035;-47
2021/09/21 01:24:36;;;;;;;9.98;6.90;;;11.00;99.90;;;;;;5069045;28;20127;-48
2021/09/21 01:27:02;;;;;;;12.40;6.85;;;11.10;99.90;;;;;;5068582;28;20390;-47
2021/09/21 01:29:27;;;;;;;12.80;7.60;;;11.00;99.90;;;;;;5068950;28;20064;-48
2021/09/21 01:31:53;;;;;;;9.50;6.93;;;11.00;99.90;;;;;;5069163;28;20036;-48
2021/09/21 01:34:19;;;;;;;13.10;7.82;;;11.00;99.90;;;;;;5069326;28;20306;-49
2021/09/21 01:36:45;;;;;;;14.00;6.88;;;11.00;99.90;;;;;;5068219;28;20032;-49
2021/09/21 01:39:11;;;;;;;11.73;6.90;;;11.00;99.90;;;;;;5062359;28;20498;-49
2021/09/21 01:41:36;;;;;;;12.35;7.40;;;11.00;99.90;;;;;;5060779;28;20020;-48
2021/09/21 01:44:02;;;;;;;11.55;7.30;;;11.00;99.90;;;;;;5067771;28;20440;-49
2021/09/21 01:46:28;;;;;;;13.75;7.70;;;11.00;99.90;;;;;;5068757;28;20108;-48
2021/09/21 01:48:53;;;;;;;11.30;7.68;;;11.00;99.90;;;;;;5068839;28;20032;-48
2021/09/21 01:51:37;;;;;;;11.13;7.88;;;11.00;99.90;;;;;;5067341;28;20102;-48
2021/09/21 01:54:17;;;;;;;12.18;7.15;;;10.90;99.90;;;;;;5067117;28;20397;-48
2021/09/21 01:59:28;;;;;;;14.20;7.55;;;10.90;99.90;;;;;;5069258;28;20039;-47
2021/09/21 02:01:53;;;;;;;10.30;7.50;;;10.90;99.90;;;;;;5068652;28;20457;-47
2021/09/21 02:04:19;;;;;;;9.18;6.40;;;10.90;99.90;;;;;;5068631;28;20041;-48
2021/09/21 02:06:45;;;;;;;13.65;7.10;;;10.90;99.90;;;;;;5067973;28;20024;-47
2021/09/21 02:09:13;;;;;;;11.27;6.93;;;10.90;99.90;;;;;;5061174;28;20398;-48
2021/09/21 02:11:41;;;;;;;9.85;6.75;;;10.90;99.90;;;;;;5060070;28;20051;-47
2021/09/21 02:14:10;;;;;;;7.85;6.22;;;10.90;99.90;;;;;;5068405;28;20553;-49
2021/09/21 02:16:36;;;;;;;10.70;6.80;;;10.90;99.90;;;;;;5066616;28;20024;-48
2021/09/21 02:19:02;;;;;;;10.23;7.25;;;10.90;99.90;;;;;;5068473;28;20036;-48
2021/09/21 02:21:27;;;;;;;12.75;7.60;;;10.90;99.90;;;;;;5068269;28;20259;-48
2021/09/21 02:23:54;;;;;;;10.80;7.28;;;10.90;99.90;;;;;;5067195;28;20055;-48
2021/09/21 02:26:20;;;;;;;12.07;6.93;;;10.90;99.90;;;;;;5068059;28;20036;-47
2021/09/21 02:28:46;;;;;;;14.02;7.63;;;10.90;99.90;;;;;;5067806;28;20039;-48
2021/09/21 02:31:12;;;;;;;10.05;7.10;;;10.80;99.90;;;;;;5068381;28;20552;-48
2021/09/21 02:33:38;;;;;;;10.80;7.10;;;10.90;99.90;;;;;;5068284;28;20086;-48
2021/09/21 02:36:05;;;;;;;10.77;7.85;;;10.90;99.90;;;;;;5066745;28;20371;-49
2021/09/21 02:38:34;;;;;;;12.73;7.90;;;10.90;99.90;;;;;;5043251;28;20613;-49
2021/09/21 02:41:00;;;;;;;13.93;8.60;;;10.80;99.90;;;;;;5057476;28;20475;-48
2021/09/21 02:43:25;;;;;;;10.63;7.20;;;10.80;99.90;;;;;;5068157;28;20108;-48
2021/09/21 02:45:51;;;;;;;11.88;8.23;;;10.80;99.90;;;;;;5053117;28;20036;-48
2021/09/21 02:48:17;;;;;;;13.85;7.85;;;10.80;99.90;;;;;;5046253;28;20025;-48
2021/09/21 02:50:43;;;;;;;11.65;7.78;;;10.80;99.90;;;;;;5048067;28;20207;-49
2021/09/21 02:53:09;;;;;;;10.90;7.10;;;10.80;99.90;;;;;;5048213;28;20047;-48
2021/09/21 02:55:35;;;;;;;9.98;7.40;;;10.80;99.90;;;;;;5046358;28;20502;-48
2021/09/21 02:58:00;;;;;;;17.55;8.55;;;10.80;99.90;;;;;;5047139;28;20044;-48
2021/09/21 03:00:27;;;;;;;12.07;8.75;;;10.80;99.90;;;;;;5047907;28;20421;-49
2021/09/21 03:02:55;;;;;;;17.05;8.52;;;10.80;99.90;;;;;;5047978;28;20071;-48
2021/09/21 03:05:27;;;;;;;10.45;7.80;;;10.80;99.90;;;;;;5047912;28;20063;-49
2021/09/21 03:07:56;;;;;;;15.95;8.05;;;10.70;99.90;;;;;;5047229;28;20106;-51
2021/09/21 03:18:50;;;;;;;13.65;7.60;;;10.70;99.90;;;;;;5067813;28;20238;-49
2021/09/21 03:21:16;;;;;;;12.88;7.88;;;10.70;99.90;;;;;;5067951;28;20037;-48
2021/09/21 03:23:41;;;;;;;10.25;7.75;;;10.70;99.90;;;;;;5066558;28;20109;-50
2021/09/21 03:26:07;;;;;;;11.32;7.28;;;10.70;99.90;;;;;;5066485;28;20054;-49
2021/09/21 03:28:32;;;;;;;15.00;8.38;;;10.60;99.90;;;;;;5065837;28;20033;-48
2021/09/21 03:30:58;;;;;;;14.23;8.27;;;10.60;99.90;;;;;;5068291;28;20037;-49
2021/09/21 03:33:23;;;;;;;12.40;7.85;;;10.60;99.90;;;;;;5067884;28;20554;-48
2021/09/21 03:35:49;;;;;;;11.95;8.43;;;10.60;99.90;;;;;;5071357;28;20093;-49
2021/09/21 03:38:15;;;;;;;9.68;7.15;;;10.60;99.90;;;;;;5070872;28;20020;-50
2021/09/21 03:40:40;;;;;;;10.30;7.30;;;10.60;99.90;;;;;;5060176;28;20052;-49
2021/09/21 03:43:06;;;;;;;12.68;8.38;;;10.60;99.90;;;;;;5070719;28;20021;-48
2021/09/21 03:45:32;;;;;;;12.45;7.97;;;10.60;99.90;;;;;;5070983;28;20036;-48
2021/09/21 03:47:58;;;;;;;10.10;6.97;;;10.70;99.90;;;;;;5069749;28;20498;-48
2021/09/21 03:50:23;;;;;;;13.80;7.85;;;10.70;99.90;;;;;;5069729;28;20024;-48
2021/09/21 03:52:49;;;;;;;11.45;7.97;;;10.70;99.90;;;;;;5070208;28;20135;-48
2021/09/21 03:55:16;;;;;;;11.95;7.85;;;10.70;99.90;;;;;;5070309;28;20032;-49
2021/09/21 03:57:42;;;;;;;11.18;7.93;;;10.70;99.90;;;;;;5069445;28;20086;-48
2021/09/21 04:00:08;;;;;;;14.32;8.25;;;10.60;99.90;;;;;;5070231;28;20028;-48
2021/09/21 04:02:33;;;;;;;11.93;8.15;;;10.60;99.90;;;;;;5070142;28;20031;-49
2021/09/21 04:04:59;;;;;;;11.20;7.90;;;10.50;99.90;;;;;;5070261;28;20024;-50
2021/09/21 04:07:24;;;;;;;13.82;7.60;;;10.50;99.90;;;;;;5069524;28;20052;-50
2021/09/21 04:09:50;;;;;;;12.02;7.43;;;10.50;99.90;;;;;;5065272;28;20047;-49
2021/09/21 04:12:15;;;;;;;11.85;8.05;;;10.40;99.90;;;;;;5062365;28;20033;-48
2021/09/21 04:14:41;;;;;;;11.63;8.40;;;10.40;99.90;;;;;;5069925;28;20033;-48
2021/09/21 04:17:06;;;;;;;13.52;8.90;;;10.40;99.90;;;;;;5069304;28;20060;-49
2021/09/21 04:19:32;;;;;;;10.07;7.55;;;10.30;99.90;;;;;;5068483;28;20024;-49
2021/09/21 04:21:58;;;;;;;13.75;9.15;;;10.40;99.90;;;;;;5069883;28;20027;-48
2021/09/21 04:24:23;;;;;;;16.00;9.55;;;10.30;99.90;;;;;;5052042;28;20479;-47
2021/09/21 04:26:48;;;;;;;16.73;10.13;;;10.30;99.90;;;;;;5035501;28;20633;-48
2021/09/21 04:29:14;;;;;;;10.85;8.75;;;10.20;99.90;;;;;;5037903;28;20096;-48
2021/09/21 04:31:42;;;;;;;14.35;9.43;;;10.20;99.90;;;;;;5029419;28;20068;-48
2021/09/21 04:34:12;;;;;;;14.07;8.70;;;10.20;99.90;;;;;;5041382;28;20072;-48
2021/09/21 04:36:38;;;;;;;16.63;9.45;;;10.20;99.90;;;;;;5049413;28;20035;-47
2021/09/21 04:39:04;;;;;;;18.00;9.70;;;10.10;99.90;;;;;;5045310;28;20025;-47
2021/09/21 04:41:29;;;;;;;17.92;9.75;;;10.10;99.90;;;;;;5054105;28;20033;-48
2021/09/21 04:43:55;;;;;;;19.73;10.77;;;10.10;99.90;;;;;;5046069;28;20622;-49
2021/09/21 04:46:20;;;;;;;15.10;10.13;;;10.10;99.90;;;;;;5028124;28;20063;-47
2021/09/21 04:48:46;;;;;;;14.88;10.00;;;10.10;99.90;;;;;;5028928;28;20423;-50
2021/09/21 04:51:11;;;;;;;14.30;9.38;;;10.00;99.90;;;;;;5029285;28;20112;-48
2021/09/21 04:53:37;;;;;;;12.98;8.40;;;10.00;99.90;;;;;;5029171;28;20030;-48
2021/09/21 04:56:02;;;;;;;13.52;8.35;;;10.00;99.90;;;;;;5028827;28;20045;-52
2021/09/21 04:58:28;;;;;;;14.73;7.85;;;10.00;99.90;;;;;;5027445;28;20018;-52
2021/09/21 05:00:54;;;;;;;12.30;8.05;;;9.90;99.90;;;;;;5029219;28;20037;-48
2021/09/21 05:03:20;;;;;;;12.65;8.75;;;10.00;99.90;;;;;;5029350;28;20471;-52
2021/09/21 05:05:46;;;;;;;11.38;8.10;;;9.90;99.90;;;;;;5028965;28;20091;-52
2021/09/21 05:08:11;;;;;;;12.32;8.50;;;9.90;99.90;;;;;;5028632;28;20152;-52
2021/09/21 05:10:37;;;;;;;11.48;7.97;;;9.90;99.90;;;;;;5050802;28;20025;-52
2021/09/21 05:13:02;;;;;;;11.43;8.05;;;9.70;99.90;;;;;;5068025;28;20037;-51
2021/09/21 05:15:28;;;;;;;12.70;7.22;;;9.70;99.90;;;;;;5068930;28;20044;-51
2021/09/21 05:17:54;;;;;;;10.02;7.85;;;9.70;99.90;;;;;;5066906;28;20390;-50
2021/09/21 05:20:19;;;;;;;13.00;7.93;;;9.60;99.90;;;;;;5067458;28;20104;-51
2021/09/21 05:22:50;;;;;;;13.70;8.75;;;9.60;99.90;;;;;;5068549;28;20027;-51
2021/09/21 05:25:16;;;;;;;14.82;9.75;;;9.60;99.90;;;;;;5054661;28;20054;-51
2021/09/21 05:27:42;;;;;;;15.02;9.38;;;9.60;99.90;;;;;;5040845;28;20017;-51
2021/09/21 05:30:08;;;;;;;15.75;9.00;;;9.60;99.90;;;;;;5029058;28;20105;-49
2021/09/21 05:32:33;;;;;;;15.70;9.13;;;9.60;99.90;;;;;;5028950;28;20021;-49
2021/09/21 05:34:59;;;;;;;15.30;9.02;;;9.60;99.90;;;;;;5029815;28;20036;-51
2021/09/21 05:37:26;;;;;;;11.18;8.30;;;9.60;99.90;;;;;;5028661;28;20067;-51
2021/09/21 05:39:51;;;;;;;17.08;10.57;;;9.60;99.90;;;;;;5046715;28;20520;-51
2021/09/21 05:42:17;;;;;;;14.27;9.48;;;9.60;99.90;;;;;;5059634;28;20028;-50
2021/09/21 05:44:42;;;;;;;17.98;9.18;;;9.60;99.90;;;;;;5032350;28;20044;-51
2021/09/21 05:47:08;;;;;;;15.23;9.00;;;9.70;99.90;;;;;;5039385;28;20032;-51
2021/09/21 05:49:34;;;;;;;15.88;9.35;;;9.70;99.90;;;;;;5044338;28;20020;-50
2021/09/21 05:51:59;;;;;;;16.83;9.32;;;9.70;99.90;;;;;;5039801;28;20021;-51
2021/09/21 05:54:25;;;;;;;14.05;8.77;;;9.70;99.90;;;;;;5036684;28;20032;-51
2021/09/21 05:56:50;;;;;;;13.13;8.77;;;9.70;99.90;;;;;;5035978;28;20029;-51
2021/09/21 05:59:16;;;;;;;14.85;9.52;;;9.70;99.90;;;;;;5037785;28;20091;-51
2021/09/21 06:01:41;;;;;;;12.20;8.52;;;9.70;99.90;;;;;;5038574;28;20105;-51
2021/09/21 06:04:08;;;;;;;13.07;8.55;;;9.70;99.90;;;;;;5036694;28;20530;-51
2021/09/21 06:06:34;;;;;;;14.13;9.80;;;9.70;99.90;;;;;;5037179;28;20032;-51
2021/09/21 06:08:59;;;;;;;17.27;9.07;;;9.80;99.90;;;;;;5035885;28;20025;-50
2021/09/21 06:11:28;;;;;;;14.43;8.93;;;9.80;99.90;;;;;;5039717;28;20155;-51
2021/09/21 06:13:58;;;;;;;14.85;10.50;;;9.90;99.90;;;;;;5039407;28;20037;-51
2021/09/21 06:16:24;;;;;;;13.98;8.90;;;9.80;99.90;;;;;;5046735;28;20074;-51
2021/09/21 06:18:50;;;;;;;17.40;9.27;;;9.90;99.90;;;;;;5047591;28;20036;-51
2021/09/21 06:21:15;;;;;;;17.60;10.15;;;10.00;99.90;;;;;;5046811;28;20032;-51
2021/09/21 06:23:41;;;;;;;14.75;9.98;;;10.10;99.90;;;;;;5048455;28;20021;-51
2021/09/21 06:26:06;;;;;;;14.30;9.25;;;10.10;99.90;;;;;;5047383;28;20025;-51
2021/09/21 06:28:32;;;;;;;14.88;9.52;;;10.20;99.90;;;;;;5040046;28;20061;-51
2021/09/21 06:30:58;;;;;;;18.20;10.50;;;10.20;99.90;;;;;;5036348;28;20121;-51
2021/09/21 06:33:24;;;;;;;14.63;8.80;;;10.30;99.90;;;;;;5037082;28;20064;-51
2021/09/21 06:35:50;;;;;;;18.67;10.95;;;10.30;99.90;;;;;;5037260;28;20044;-51
2021/09/21 06:38:16;;;;;;;15.18;9.50;;;10.40;99.90;;;;;;5035099;28;20021;-51
2021/09/21 06:40:41;;;;;;;16.85;9.63;;;10.50;99.90;;;;;;5041414;28;20395;-51
2021/09/21 06:43:07;;;;;;;16.25;9.63;;;10.60;99.90;;;;;;5040545;28;20075;-51
2021/09/21 06:45:32;;;;;;;12.10;8.95;;;10.60;99.90;;;;;;5034697;28;20030;-51
2021/09/21 06:47:58;;;;;;;13.23;8.50;;;10.70;99.90;;;;;;5035361;28;20025;-51
2021/09/21 06:50:24;;;;;;;14.23;9.32;;;10.70;99.90;;;;;;5036785;28;20087;-51
2021/09/21 06:52:49;;;;;;;17.25;9.40;;;10.80;99.90;;;;;;5037304;28;20364;-52
2021/09/21 06:55:15;;;;;;;15.15;8.75;;;10.80;99.90;;;;;;5037662;28;20025;-51
2021/09/21 06:57:41;;;;;;;11.30;8.73;;;10.90;99.90;;;;;;5035233;28;20037;-51
2021/09/21 07:00:10;;;;;;;14.77;8.60;;;11.00;99.90;;;;;;5036054;28;20028;-52
2021/09/21 07:02:36;;;;;;;12.32;8.93;;;11.00;99.90;;;;;;5040454;28;20374;-52
2021/09/21 07:05:02;;;;;;;11.30;7.53;;;11.10;99.90;;;;;;5032940;28;20032;-51
2021/09/21 07:07:28;;;;;;;16.83;10.85;;;11.10;99.90;;;;;;5028621;28;20021;-51
2021/09/21 07:09:53;;;;;;;17.02;10.48;;;11.20;99.90;;;;;;5031949;28;20030;-52
2021/09/21 07:12:19;;;;;;;14.15;8.85;;;11.30;99.90;;;;;;5061183;28;20303;-52
2021/09/21 07:14:44;;;;;;;15.48;8.85;;;11.30;99.90;;;;;;5040495;28;20522;-52
2021/09/21 07:17:09;;;;;;;11.50;8.40;;;11.40;99.90;;;;;;5036636;28;20026;-51
2021/09/21 07:19:35;;;;;;;12.68;7.72;;;11.40;99.90;;;;;;5034222;28;20021;-51
2021/09/21 07:22:00;;;;;;;14.63;8.05;;;11.50;99.90;;;;;;5034775;28;20033;-51
2021/09/21 07:24:26;;;;;;;12.70;7.85;;;11.60;99.90;;;;;;5033605;28;20029;-51
2021/09/21 07:26:52;;;;;;;10.70;8.07;;;11.60;99.90;;;;;;5042287;28;20398;-52
2021/09/21 07:29:18;;;;;;;12.48;8.30;;;11.80;99.90;;;;;;5051039;28;20108;-47
2021/09/21 07:31:44;;;;;;;11.77;7.80;;;11.80;99.90;;;;;;5051031;28;20029;-48
2021/09/21 07:34:10;;;;;;;14.45;8.32;;;11.90;99.90;;;;;;5050507;28;20044;-48
2021/09/21 07:36:35;;;;;;;13.80;8.27;;;12.00;99.90;;;;;;5050383;28;20029;-52
2021/09/21 07:39:02;;;;;;;11.90;8.15;;;12.00;99.90;;;;;;5049734;28;20110;-45
2021/09/21 07:41:28;;;;;;;11.48;7.85;;;12.00;99.90;;;;;;5051745;28;20155;-46
2021/09/21 07:43:53;;;;;;;11.02;7.28;;;12.10;99.90;;;;;;5068673;28;20449;-48
2021/09/21 07:46:19;;;;;;;16.05;8.10;;;12.20;99.90;;;;;;5049508;28;20037;-47
2021/09/21 07:48:45;;;;;;;13.52;7.78;;;12.20;99.90;;;;;;5030181;28;20038;-47
2021/09/21 07:51:10;;;;;;;13.02;8.10;;;12.20;99.90;;;;;;5030789;28;20030;-45
2021/09/21 07:53:36;;;;;;;14.30;8.00;;;12.30;99.90;;;;;;5030891;28;20105;-45
2021/09/21 07:56:02;;;;;;;15.80;9.25;;;12.30;99.90;;;;;;5028965;28;20513;-51
2021/09/21 07:58:28;;;;;;;11.40;8.27;;;12.30;99.90;;;;;;5029183;28;20026;-51
2021/09/21 08:00:55;;;;;;;13.18;8.15;;;12.40;99.90;;;;;;5030575;28;20021;-52
2021/09/21 08:03:23;;;;;;;11.70;7.85;;;12.40;99.90;;;;;;5030324;28;20081;-52
2021/09/21 08:05:49;;;;;;;13.07;8.35;;;12.50;99.90;;;;;;5030768;28;20083;-52
2021/09/21 08:08:18;;;;;;;13.68;8.43;;;12.50;99.90;;;;;;5030261;28;20037;-52
2021/09/21 08:10:44;;;;;;;10.90;7.70;;;12.70;99.90;;;;;;5046370;28;20017;-52
2021/09/21 08:13:10;;;;;;;10.35;7.45;;;12.70;99.90;;;;;;5062231;28;20040;-51
2021/09/21 08:15:36;;;;;;;15.13;8.20;;;12.80;99.90;;;;;;5070406;28;20115;-52
2021/09/21 08:18:02;;;;;;;11.43;7.60;;;13.00;99.90;;;;;;5069980;28;20095;-52
2021/09/21 08:20:28;;;;;;;11.15;7.47;;;13.10;99.90;;;;;;5069264;28;20021;-52
2021/09/21 08:22:54;;;;;;;10.93;7.07;;;13.20;99.90;;;;;;5070635;28;20192;-52
2021/09/21 08:25:20;;;;;;;11.13;7.25;;;13.30;99.90;;;;;;5069666;28;20024;-52
2021/09/21 08:27:46;;;;;;;11.55;7.03;;;13.40;99.90;;;;;;5069606;28;20132;-52
2021/09/21 08:30:12;;;;;;;10.90;6.82;;;13.40;99.90;;;;;;5069917;28;20107;-52
2021/09/21 08:32:39;;;;;;;10.07;6.97;;;13.50;99.90;;;;;;5068772;28;20028;-51
2021/09/21 08:35:05;;;;;;;10.35;6.82;;;13.60;99.90;;;;;;5069890;28;20444;-52
2021/09/21 08:37:30;;;;;;;9.73;6.55;;;13.70;99.90;;;;;;5069325;28;20028;-51
2021/09/21 08:39:56;;;;;;;11.25;7.10;;;13.70;99.90;;;;;;5057430;28;20021;-52
2021/09/21 08:42:22;;;;;;;11.93;7.63;;;13.80;99.90;;;;;;5059742;28;20463;-52
2021/09/21 08:44:47;;;;;;;9.95;7.35;;;13.80;99.90;;;;;;5068155;28;20025;-52
2021/09/21 08:47:13;;;;;;;9.63;6.97;;;13.70;99.90;;;;;;5047796;28;20494;-52
2021/09/21 08:49:39;;;;;;;10.10;7.05;;;13.80;99.90;;;;;;5029602;28;20037;-52
2021/09/21 08:52:04;;;;;;;11.55;7.53;;;13.80;99.90;;;;;;5028541;28;20037;-52
2021/09/21 08:54:30;;;;;;;11.75;7.03;;;13.80;99.90;;;;;;5029351;28;20388;-51
2021/09/21 08:56:57;;;;;;;13.38;7.78;;;13.90;99.90;;;;;;5029554;28;20375;-52
2021/09/21 08:59:34;;;;;;;8.73;6.57;;;14.00;99.90;;;;;;5029384;28;20038;-52
2021/09/21 09:02:08;;;;;;;26.83;19.42;;;14.00;99.90;;;;;;5029620;28;20018;-52
2021/09/21 09:04:34;;;;;;;13.88;8.93;;;14.10;99.90;;;;;;5031121;28;20022;-52
2021/09/21 09:07:01;;;;;;;14.27;8.48;;;14.10;99.90;;;;;;5029831;28;20033;-52
2021/09/21 09:09:30;;;;;;;9.38;6.88;;;14.30;99.90;;;;;;5028513;28;21644;-52
2021/09/21 09:11:59;;;;;;;12.85;6.90;;;14.40;99.90;;;;;;5059270;28;20029;-52
2021/09/21 09:14:28;;;;;;;13.20;6.82;;;14.50;99.90;;;;;;5068664;28;20047;-52
2021/09/21 09:17:15;;;;;;;8.90;6.22;;;14.70;99.90;;;;;;5068429;28;20298;-52
2021/09/21 09:19:45;;;;;;;11.77;6.68;;;14.80;99.90;;;;;;5060395;28;20116;-52
2021/09/21 09:22:16;;;;;;;10.68;7.15;;;15.10;99.90;;;;;;5041094;28;20024;-52
2021/09/21 09:24:57;;;;;;;8.70;5.82;;;15.20;99.90;;;;;;5038692;28;20383;-54
2021/09/21 09:27:41;;;;;;;7.03;6.25;;;15.60;99.90;;;;;;5037995;28;20526;-53
2021/09/21 09:30:14;;;;;;;8.52;5.97;;;16.00;99.90;;;;;;5033685;28;20033;-54
2021/09/21 09:32:48;;;;;;;9.60;6.00;;;16.10;99.90;;;;;;5036426;28;20032;-53
2021/09/21 09:35:25;;;;;;;10.50;6.15;;;16.30;99.90;;;;;;5037389;28;20108;-53
2021/09/21 09:37:52;;;;;;;35.03;7.50;;;16.40;99.90;;;;;;5034791;28;20427;-54
2021/09/21 09:40:17;;;;;;;27.02;6.70;;;16.30;99.90;;;;;;5040828;28;20363;-54
2021/09/21 09:42:44;;;;;;;13.48;6.45;;;16.20;99.90;;;;;;5044965;28;20022;-54
2021/09/21 09:45:11;;;;;;;8.88;6.43;;;16.20;99.90;;;;;;5036083;28;20026;-54
2021/09/21 09:47:45;;;;;;;9.32;5.95;;;16.40;99.90;;;;;;5038056;28;20471;-54
2021/09/21 09:50:12;;;;;;;7.50;5.75;;;16.30;99.90;;;;;;5040698;28;20021;-54
2021/09/21 09:52:37;;;;;;;6.78;5.22;;;16.40;99.90;;;;;;5039030;28;20386;-53
2021/09/21 09:55:03;;;;;;;14.75;6.38;;;16.50;99.90;;;;;;5039089;28;20021;-54
2021/09/21 09:57:30;;;;;;;9.02;6.53;;;16.50;99.90;;;;;;5040010;28;20029;-53
2021/09/21 09:59:56;;;;;;;10.00;6.57;;;16.50;99.90;;;;;;5039013;28;20021;-54
2021/09/21 10:02:22;;;;;;;11.50;6.75;;;16.60;99.90;;;;;;5040400;28;20040;-53
2021/09/21 10:04:49;;;;;;;8.90;6.50;;;16.40;99.90;;;;;;5040775;28;20017;-54
2021/09/21 10:07:16;;;;;;;11.38;6.55;;;16.40;99.90;;;;;;5037977;28;20068;-52
2021/09/21 10:09:42;;;;;;;10.63;7.03;;;16.40;99.90;;;;;;5039035;28;20041;-53
2021/09/21 10:12:08;;;;;;;9.18;6.85;;;16.30;99.90;;;;;;5050543;28;20059;-53
2021/09/21 10:14:34;;;;;;;8.98;6.38;;;16.40;99.90;;;;;;5039294;28;20052;-54
2021/09/21 10:17:02;;;;;;;9.55;6.78;;;16.50;99.90;;;;;;5039117;28;20068;-53
2021/09/21 10:19:29;;;;;;;11.68;6.97;;;16.40;99.90;;;;;;5038785;28;20383;-54
2021/09/21 10:21:55;;;;;;;7.63;6.30;;;16.40;99.90;;;;;;5038422;28;20025;-53
2021/09/21 10:24:42;;;;;;;11.20;7.00;;;16.20;99.90;;;;;;5038342;28;20025;-53
2021/09/21 10:27:18;;;;;;;10.52;6.57;;;16.10;99.90;;;;;;5039191;28;20586;-54
2021/09/21 10:29:44;;;;;;;13.52;6.30;;;16.00;99.90;;;;;;5040045;28;20529;-54
2021/09/21 10:32:11;;;;;;;10.77;6.63;;;15.90;99.90;;;;;;5038945;28;20029;-54
2021/09/21 10:34:45;;;;;;;9.90;6.10;;;15.80;99.90;;;;;;5035316;28;20574;-53
2021/09/21 10:37:12;;;;;;;12.05;7.10;;;15.90;99.90;;;;;;5035178;28;20039;-53
2021/09/21 10:39:38;;;;;;;18.90;12.70;;;15.90;99.90;;;;;;5030056;28;20018;-53
2021/09/21 10:42:10;;;;;;;10.52;6.53;;;16.10;99.90;;;;;;5061652;28;20028;-53
2021/09/21 10:44:47;;;;;;;7.53;5.85;;;16.50;99.90;;;;;;5045465;28;20104;-53
2021/09/21 10:47:29;;;;;;;7.85;6.20;;;16.80;99.90;;;;;;5042591;28;20029;-53
2021/09/21 10:50:14;;;;;;;7.25;4.80;;;17.10;99.40;;;;;;5041553;28;20375;-53
2021/09/21 10:52:41;;;;;;;10.32;5.75;;;17.40;98.80;;;;;;5036218;28;20021;-53
2021/09/21 10:55:12;;;;;;;12.63;6.25;;;17.50;97.10;;;;;;5035902;28;20029;-54
2021/09/21 10:57:45;;;;;;;10.57;5.95;;;17.50;95.80;;;;;;5035113;28;20025;-53
2021/09/21 11:00:16;;;;;;;7.90;5.22;;;17.70;96.80;;;;;;5035808;28;20026;-54
2021/09/21 11:02:48;;;;;;;6.65;5.05;;;18.10;95.60;;;;;;5043545;28;20024;-53
2021/09/21 11:05:17;;;;;;;9.32;5.30;;;18.30;96.20;;;;;;5042987;28;20021;-53
2021/09/21 11:07:51;;;;;;;10.00;5.50;;;18.10;94.80;;;;;;5043982;28;20021;-53
2021/09/21 11:10:18;;;;;;;11.45;5.43;;;17.90;95.90;;;;;;5042089;28;20075;-53
2021/09/21 11:12:51;;;;;;;8.45;5.45;;;17.60;96.00;;;;;;5047946;28;20148;-52
2021/09/21 11:15:21;;;;;;;11.85;5.65;;;17.40;96.30;;;;;;5043661;28;20082;-53
2021/09/21 11:17:47;;;;;;;7.30;4.63;;;17.10;97.40;;;;;;5045392;28;20029;-52
2021/09/21 11:20:13;;;;;;;7.78;4.97;;;17.00;97.00;;;;;;5044189;28;20083;-54
2021/09/21 11:22:39;;;;;;;7.00;4.90;;;16.80;97.60;;;;;;5043299;28;20056;-53
2021/09/21 11:25:08;;;;;;;8.70;5.43;;;16.70;98.50;;;;;;5044342;28;20106;-52
2021/09/21 11:27:39;;;;;;;11.02;5.70;;;16.50;98.60;;;;;;5042585;28;20021;-52
2021/09/21 11:30:10;;;;;;;13.43;7.28;;;16.40;98.70;;;;;;5044651;28;20021;-52
2021/09/21 11:32:37;;;;;;;12.95;6.18;;;16.30;98.90;;;;;;5044991;28;20025;-51
2021/09/21 11:35:08;;;;;;;9.82;5.32;;;16.20;98.10;;;;;;5044308;28;20157;-52
2021/09/21 11:37:34;;;;;;;8.43;5.55;;;15.90;98.90;;;;;;5044307;28;20029;-52
2021/09/21 11:40:00;;;;;;;9.23;4.68;;;15.80;99.30;;;;;;5049502;28;20103;-52
2021/09/21 11:42:30;;;;;;;5.82;4.45;;;15.80;99.50;;;;;;5051617;28;20409;-52
2021/09/21 11:45:10;;;;;;;8.30;4.72;;;15.70;99.50;;;;;;5038676;28;20033;-53
2021/09/21 11:47:42;;;;;;;7.95;3.55;;;15.60;99.80;;;;;;5035636;28;20032;-52
2021/09/21 11:50:14;;;;;;;5.18;3.10;;;15.50;98.00;;;;;;5043872;28;20030;-52
2021/09/21 11:52:44;;;;;;;6.07;3.25;;;15.40;98.00;;;;;;5043097;28;20044;-52
2021/09/21 11:55:14;;;;;;;;;;;15.50;98.60;;;;;;5042029;28;20112;-52
2021/09/21 11:57:41;;;;;;;5.35;3.67;;;15.40;98.10;;;;;;5043942;28;19909;-52
2021/09/21 12:00:18;;;;;;;6.03;3.80;;;15.30;98.70;;;;;;5039081;28;20028;-52
2021/09/21 12:02:43;;;;;;;9.27;4.10;;;15.30;99.20;;;;;;5039657;28;20104;-52
2021/09/21 12:05:12;;;;;;;9.27;3.67;;;15.10;99.90;;;;;;5042070;28;20113;-52
2021/09/21 12:07:39;;;;;;;8.77;4.57;;;14.90;99.90;;;;;;5038893;28;20028;-52
2021/09/21 12:10:06;;;;;;;6.28;4.22;;;14.80;99.90;;;;;;5043649;28;20540;-52
2021/09/21 12:12:31;;;;;;;5.90;3.60;;;14.70;99.90;;;;;;5046234;28;20029;-51
2021/09/21 12:15:00;;;;;;;5.18;4.03;;;14.70;99.90;;;;;;5041521;28;20379;-52
2021/09/21 12:17:27;;;;;;;5.55;4.03;;;14.70;99.90;;;;;;5049967;28;20029;-52
2021/09/21 12:19:59;;;;;;;9.30;4.70;;;14.70;99.90;;;;;;5050787;28;20044;-52
2021/09/21 12:22:26;;;;;;;6.22;3.80;;;14.50;99.90;;;;;;5049529;28;20023;-51
2021/09/21 12:24:53;;;;;;;8.35;4.15;;;14.30;99.90;;;;;;5050469;28;20021;-51
2021/09/21 12:27:23;;;;;;;6.82;3.90;;;14.20;99.90;;;;;;5049927;28;20048;-51
2021/09/21 12:29:48;;;;;;;5.93;3.90;;;14.30;99.90;;;;;;5050445;28;20270;-52
2021/09/21 12:32:14;;;;;;;4.22;3.08;;;14.50;99.90;;;;;;5050468;28;20464;-52
2021/09/21 12:34:41;;;;;;;6.05;3.50;;;14.60;99.90;;;;;;5050668;28;20029;-52
2021/09/21 12:37:08;;;;;;;7.63;3.72;;;14.80;99.90;;;;;;5049820;28;20406;-52
2021/09/21 12:39:34;;;;;;;4.82;3.22;;;15.00;99.90;;;;;;5047942;28;20028;-52
2021/09/21 12:42:02;;;;;;;4.88;3.03;;;15.30;99.90;;;;;;5059447;28;20475;-52
2021/09/21 12:44:29;;;;;;;9.65;3.40;;;15.60;99.90;;;;;;5070258;28;20039;-52
2021/09/21 12:46:58;;;;;;;5.43;3.33;;;15.90;99.90;;;;;;5069603;28;20024;-52
2021/09/21 12:49:28;;;;;;;6.82;3.88;;;16.00;98.20;;;;;;5070473;28;20108;-51
2021/09/21 12:51:55;;;;;;;8.32;4.15;;;15.90;98.40;;;;;;5070305;28;20415;-52